Time;durP1;ratioP1;P1;durP2;ratioP2;P2;SDS_P1;SDS_P2;PMS_P1;PMS_P2;Temp;Humidity;BMP_temperature;BMP_pressure;BME280_temperature;BME280_humidity;BME280_pressure;Samples;Min_cycle;Max_cycle;Signal;HPM_P1;HPM_P2
2022/03/31 00:00:34;;;;;;;18.40;6.53;;;15.80;65.40;;;;;;5052483;28;20786;-67
2022/03/31 00:03:02;;;;;;;13.23;6.00;;;15.70;65.70;;;;;;5052463;28;20473;-67
2022/03/31 00:05:29;;;;;;;11.70;5.90;;;15.80;66.40;;;;;;5052235;28;20449;-67
2022/03/31 00:07:58;;;;;;;12.60;7.27;;;15.80;66.40;;;;;;5051736;28;20453;-67
2022/03/31 00:10:32;;;;;;;15.93;6.53;;;15.80;66.30;;;;;;5052110;28;20461;-67
2022/03/31 00:13:01;;;;;;;14.70;7.17;;;15.70;66.20;;;;;;5052257;28;20842;-67
2022/03/31 00:15:30;;;;;;;12.40;6.30;;;15.80;66.10;;;;;;5051947;28;20492;-67
2022/03/31 00:18:00;;;;;;;18.87;6.03;;;16.00;66.00;;;;;;5051591;28;20464;-66
2022/03/31 00:20:27;;;;;;;16.50;6.80;;;16.00;66.20;;;;;;5051694;28;20453;-67
2022/03/31 00:22:54;;;;;;;16.70;5.90;;;15.80;66.00;;;;;;5033326;28;20473;-67
2022/03/31 00:25:23;;;;;;;21.10;6.60;;;15.60;65.70;;;;;;5031828;28;20542;-67
2022/03/31 00:27:50;;;;;;;15.93;6.63;;;15.70;65.70;;;;;;5031993;28;20577;-68
2022/03/31 00:30:17;;;;;;;20.07;7.03;;;15.70;65.90;;;;;;5031789;28;20637;-67
2022/03/31 00:32:44;;;;;;;20.90;6.43;;;15.70;66.80;;;;;;5031477;28;20470;-67
2022/03/31 00:35:14;;;;;;;10.57;5.73;;;15.70;66.70;;;;;;5031615;28;20509;-67
2022/03/31 00:37:41;;;;;;;18.23;5.83;;;15.90;66.70;;;;;;5031843;28;20458;-66
2022/03/31 00:40:16;;;;;;;12.87;6.23;;;16.00;66.40;;;;;;5031745;28;20442;-66
2022/03/31 00:42:47;;;;;;;21.50;6.20;;;16.20;66.20;;;;;;5031810;28;20509;-67
2022/03/31 00:45:15;;;;;;;16.13;5.63;;;16.30;65.60;;;;;;5031964;28;20541;-67
2022/03/31 00:47:42;;;;;;;15.33;5.80;;;16.30;65.40;;;;;;5031181;28;20565;-67
2022/03/31 00:50:15;;;;;;;11.70;5.53;;;16.30;65.40;;;;;;5031461;28;20447;-67
2022/03/31 00:52:43;;;;;;;9.30;5.50;;;16.30;65.50;;;;;;5031406;28;20562;-66
2022/03/31 00:55:12;;;;;;;12.90;5.67;;;16.30;65.40;;;;;;5031492;28;21013;-67
2022/03/31 00:57:44;;;;;;;16.27;5.67;;;16.30;65.70;;;;;;5031683;28;20461;-67
2022/03/31 01:00:14;;;;;;;15.90;6.13;;;16.30;65.80;;;;;;5031250;28;20471;-67
2022/03/31 01:02:51;;;;;;;13.80;5.63;;;16.30;65.80;;;;;;5031445;28;20483;-67
2022/03/31 01:05:22;;;;;;;17.17;5.33;;;16.20;65.90;;;;;;5031190;28;20446;-68
2022/03/31 01:07:49;;;;;;;10.20;6.10;;;16.20;65.70;;;;;;5031383;28;20462;-66
2022/03/31 01:10:16;;;;;;;19.43;6.40;;;16.00;66.20;;;;;;5031007;28;20470;-66
2022/03/31 01:12:46;;;;;;;19.17;6.40;;;16.00;66.30;;;;;;5031182;28;20477;-67
2022/03/31 01:15:18;;;;;;;17.97;5.57;;;16.10;66.40;;;;;;5031074;28;20508;-66
2022/03/31 01:17:46;;;;;;;17.90;6.80;;;16.10;66.10;;;;;;5031121;28;20454;-67
2022/03/31 01:20:16;;;;;;;13.20;5.90;;;16.10;66.40;;;;;;5030704;28;20466;-67
2022/03/31 01:22:45;;;;;;;20.87;6.27;;;16.00;66.90;;;;;;5030643;28;20478;-66
2022/03/31 01:25:15;;;;;;;16.63;6.83;;;16.10;67.20;;;;;;5030799;28;20455;-67
2022/03/31 01:27:44;;;;;;;17.30;5.73;;;16.20;66.80;;;;;;5030562;28;20822;-67
2022/03/31 01:30:14;;;;;;;20.10;5.63;;;16.30;67.00;;;;;;5030777;28;20549;-67
2022/03/31 01:32:41;;;;;;;12.70;5.73;;;16.40;66.60;;;;;;5030905;28;20561;-66
2022/03/31 01:35:09;;;;;;;17.07;6.40;;;16.40;66.20;;;;;;5030617;28;20450;-66
2022/03/31 01:37:37;;;;;;;21.70;6.03;;;16.50;65.90;;;;;;5030521;28;20466;-67
2022/03/31 01:40:05;;;;;;;16.87;5.80;;;16.50;65.90;;;;;;5030562;28;20520;-67
2022/03/31 01:42:34;;;;;;;17.10;5.33;;;16.40;66.20;;;;;;5030386;28;20455;-66
2022/03/31 01:45:02;;;;;;;14.17;6.57;;;16.40;67.20;;;;;;5030344;28;20462;-66
2022/03/31 01:47:34;;;;;;;16.07;5.67;;;16.40;66.40;;;;;;5030582;28;20458;-67
2022/03/31 01:50:02;;;;;;;14.13;5.37;;;16.40;66.20;;;;;;5030198;28;20545;-66
2022/03/31 01:52:29;;;;;;;14.10;5.60;;;16.40;66.00;;;;;;5030521;28;20493;-66
2022/03/31 01:54:56;;;;;;;18.07;5.40;;;16.40;65.70;;;;;;5029937;28;20751;-66
2022/03/31 01:57:23;;;;;;;13.13;7.50;;;16.30;66.00;;;;;;5030141;28;20493;-66
2022/03/31 01:59:52;;;;;;;15.53;5.30;;;16.40;65.80;;;;;;5030259;28;20455;-67
2022/03/31 02:02:19;;;;;;;17.87;5.43;;;16.30;65.80;;;;;;5030309;28;20786;-66
2022/03/31 02:04:47;;;;;;;16.53;6.03;;;16.20;66.20;;;;;;5030127;28;20459;-67
2022/03/31 02:07:15;;;;;;;16.97;5.20;;;16.10;66.00;;;;;;5030272;28;20458;-67
2022/03/31 02:09:42;;;;;;;12.30;5.00;;;16.20;65.60;;;;;;5029849;28;20557;-68
2022/03/31 02:12:10;;;;;;;22.10;6.27;;;16.20;65.30;;;;;;5029931;28;20458;-66
2022/03/31 02:14:39;;;;;;;16.10;5.53;;;16.00;65.50;;;;;;5029990;28;20455;-66
2022/03/31 02:17:09;;;;;;;15.10;5.60;;;16.00;66.10;;;;;;5029925;28;20599;-67
2022/03/31 02:19:36;;;;;;;19.77;6.13;;;16.20;65.80;;;;;;5029801;28;20478;-67
2022/03/31 02:22:05;;;;;;;15.40;5.03;;;16.30;65.70;;;;;;5029695;28;20439;-66
2022/03/31 02:24:32;;;;;;;18.20;6.70;;;16.20;65.50;;;;;;5029729;28;21009;-66
2022/03/31 02:27:01;;;;;;;19.17;5.40;;;16.20;65.50;;;;;;5029786;28;20493;-66
2022/03/31 02:29:28;;;;;;;19.70;7.13;;;16.20;65.70;;;;;;5029272;28;20736;-66
2022/03/31 02:31:56;;;;;;;16.30;6.23;;;16.20;65.80;;;;;;5029436;28;20509;-66
2022/03/31 02:34:25;;;;;;;18.90;6.03;;;16.30;65.50;;;;;;5029407;28;20467;-66
2022/03/31 02:36:57;;;;;;;18.10;5.13;;;16.20;65.70;;;;;;5029632;28;20486;-66
2022/03/31 02:39:24;;;;;;;13.67;4.93;;;16.20;65.50;;;;;;5029689;28;20451;-66
2022/03/31 02:41:53;;;;;;;17.43;6.30;;;16.30;65.10;;;;;;5029571;28;20451;-66
2022/03/31 02:44:20;;;;;;;13.13;5.60;;;16.30;65.40;;;;;;5029560;28;20505;-66
2022/03/31 02:46:47;;;;;;;11.93;5.40;;;16.20;65.40;;;;;;5029593;28;20477;-67
2022/03/31 02:49:14;;;;;;;15.03;5.60;;;16.10;65.90;;;;;;5029051;28;20482;-67
2022/03/31 02:51:43;;;;;;;13.47;6.70;;;16.00;66.00;;;;;;5029370;28;20828;-67
2022/03/31 02:56:54;;;;;;;11.07;4.87;;;16.20;65.70;;;;;;5028793;28;20858;-67
2022/03/31 02:59:27;;;;;;;11.83;5.33;;;16.10;65.60;;;;;;5029042;28;20569;-66
2022/03/31 03:01:54;;;;;;;10.33;5.40;;;16.00;65.90;;;;;;5029455;28;20462;-66
2022/03/31 03:04:21;;;;;;;14.73;5.60;;;16.30;66.20;;;;;;5028961;28;20489;-67
2022/03/31 03:06:50;;;;;;;13.40;5.63;;;16.10;65.80;;;;;;5028454;28;20466;-68
2022/03/31 03:09:17;;;;;;;16.83;5.60;;;16.00;66.10;;;;;;5028978;28;20935;-67
2022/03/31 03:11:44;;;;;;;16.53;9.40;;;16.00;66.10;;;;;;5028946;28;20451;-66
2022/03/31 03:14:13;;;;;;;12.03;6.27;;;16.10;66.20;;;;;;5028837;28;20471;-66
2022/03/31 03:16:41;;;;;;;12.03;6.23;;;16.10;65.90;;;;;;5029024;28;20490;-67
2022/03/31 03:19:09;;;;;;;12.67;6.00;;;16.20;65.70;;;;;;5028382;28;20451;-66
2022/03/31 03:21:36;;;;;;;13.37;5.70;;;16.10;66.00;;;;;;5028518;28;20451;-66
2022/03/31 03:24:05;;;;;;;17.20;7.10;;;16.00;66.00;;;;;;5028500;28;20910;-66
2022/03/31 03:26:33;;;;;;;14.30;6.40;;;16.10;66.00;;;;;;5028400;28;20447;-66
2022/03/31 03:29:00;;;;;;;19.37;6.00;;;16.10;65.80;;;;;;5028643;28;20478;-66
2022/03/31 03:31:27;;;;;;;12.07;6.20;;;16.00;66.00;;;;;;5028879;28;20673;-65
2022/03/31 03:33:54;;;;;;;11.93;5.93;;;15.80;66.40;;;;;;5028482;28;20521;-66
2022/03/31 03:36:22;;;;;;;13.03;5.60;;;15.60;67.00;;;;;;5028747;28;20490;-66
2022/03/31 03:38:49;;;;;;;15.60;6.10;;;15.60;67.00;;;;;;5028486;28;20492;-66
2022/03/31 03:41:17;;;;;;;12.33;6.20;;;15.60;67.20;;;;;;5028668;28;20450;-67
2022/03/31 03:43:44;;;;;;;23.27;7.67;;;15.50;67.50;;;;;;5028777;28;20475;-66
2022/03/31 03:46:12;;;;;;;15.07;6.70;;;15.50;67.30;;;;;;5028804;28;20478;-66
2022/03/31 03:48:39;;;;;;;17.20;6.37;;;15.60;67.90;;;;;;5028325;28;20493;-66
2022/03/31 03:51:06;;;;;;;15.43;6.20;;;15.60;67.10;;;;;;5028600;28;20450;-66
2022/03/31 03:53:34;;;;;;;15.03;7.07;;;15.40;67.10;;;;;;5028119;28;20502;-66
2022/03/31 03:56:01;;;;;;;18.23;7.40;;;15.30;68.00;;;;;;5028401;28;20439;-67
2022/03/31 03:58:29;;;;;;;12.50;6.10;;;15.30;68.30;;;;;;5028933;28;20459;-66
2022/03/31 04:00:56;;;;;;;22.03;7.67;;;15.30;68.30;;;;;;5028698;28;20450;-66
2022/03/31 04:03:26;;;;;;;16.23;7.00;;;15.20;68.80;;;;;;5027985;28;20482;-66
2022/03/31 04:05:54;;;;;;;18.73;6.13;;;15.30;69.00;;;;;;5028695;28;20459;-66
2022/03/31 04:08:23;;;;;;;16.10;6.73;;;15.40;69.00;;;;;;5028600;28;20459;-66
2022/03/31 04:10:50;;;;;;;13.87;6.43;;;15.40;68.70;;;;;;5028070;28;20958;-66
2022/03/31 04:13:17;;;;;;;11.50;6.27;;;15.40;68.90;;;;;;5028557;28;20502;-67
2022/03/31 04:15:46;;;;;;;18.10;7.50;;;15.50;69.00;;;;;;5028737;28;20454;-67
2022/03/31 04:18:13;;;;;;;17.50;7.27;;;15.50;68.80;;;;;;5031247;28;20498;-67
2022/03/31 04:20:40;;;;;;;13.77;7.33;;;15.50;68.90;;;;;;5032185;28;20491;-67
2022/03/31 04:23:07;;;;;;;18.70;8.67;;;15.50;68.90;;;;;;5031664;28;20963;-66
2022/03/31 04:25:34;;;;;;;18.57;7.03;;;15.60;69.00;;;;;;5031963;28;20554;-66
2022/03/31 04:28:03;;;;;;;16.33;6.40;;;15.60;68.80;;;;;;5032250;28;20497;-67
2022/03/31 04:30:31;;;;;;;17.70;7.30;;;15.50;69.10;;;;;;5031817;28;20458;-67
2022/03/31 04:32:59;;;;;;;16.47;6.70;;;15.40;69.50;;;;;;5031756;28;20477;-66
2022/03/31 04:35:26;;;;;;;18.00;7.50;;;15.10;70.40;;;;;;5031968;28;20462;-66
2022/03/31 04:37:53;;;;;;;13.90;7.13;;;15.30;70.40;;;;;;5032002;28;20494;-67
2022/03/31 04:40:21;;;;;;;16.60;6.80;;;15.30;70.30;;;;;;5031532;28;20802;-66
2022/03/31 04:42:48;;;;;;;19.10;6.60;;;15.40;70.30;;;;;;5031594;28;20493;-67
2022/03/31 04:45:15;;;;;;;23.80;8.57;;;15.40;70.10;;;;;;5031862;28;20450;-66
2022/03/31 04:47:43;;;;;;;16.30;7.40;;;15.30;70.30;;;;;;5031048;28;20458;-67
2022/03/31 04:50:12;;;;;;;15.60;7.43;;;15.30;71.30;;;;;;5031265;28;20478;-67
2022/03/31 04:52:39;;;;;;;14.93;7.00;;;15.20;71.90;;;;;;5031565;28;20474;-67
2022/03/31 04:55:07;;;;;;;11.40;6.13;;;15.00;72.80;;;;;;5031403;28;20491;-67
2022/03/31 04:57:34;;;;;;;17.97;7.57;;;15.00;72.80;;;;;;5031350;28;20904;-66
2022/03/31 05:00:01;;;;;;;16.47;7.13;;;15.10;72.70;;;;;;5031540;28;20458;-67
2022/03/31 05:02:28;;;;;;;17.90;7.30;;;15.10;72.20;;;;;;5031092;28;20456;-67
2022/03/31 05:04:56;;;;;;;13.73;7.23;;;15.10;72.20;;;;;;5031452;28;20454;-66
2022/03/31 05:07:24;;;;;;;16.70;7.57;;;15.00;73.20;;;;;;5031629;28;20455;-68
2022/03/31 05:09:51;;;;;;;16.57;6.50;;;14.90;73.20;;;;;;5030708;28;20466;-67
2022/03/31 05:12:19;;;;;;;20.87;6.50;;;14.90;74.10;;;;;;5030919;28;20462;-68
2022/03/31 05:14:46;;;;;;;13.20;7.10;;;15.00;74.80;;;;;;5031179;28;20455;-67
2022/03/31 05:17:13;;;;;;;20.50;7.47;;;15.10;74.30;;;;;;5031137;28;20483;-67
2022/03/31 05:19:40;;;;;;;18.03;7.27;;;15.10;74.50;;;;;;5031277;28;20461;-68
2022/03/31 05:22:07;;;;;;;16.57;8.57;;;15.10;75.00;;;;;;5030999;28;20459;-66
2022/03/31 05:24:35;;;;;;;23.47;11.43;;;15.00;75.20;;;;;;5030799;28;20486;-67
2022/03/31 05:27:03;;;;;;;19.33;7.50;;;15.00;76.10;;;;;;5030666;28;20601;-66
2022/03/31 05:29:30;;;;;;;23.67;9.43;;;15.20;75.80;;;;;;5029727;28;20477;-67
2022/03/31 05:31:59;;;;;;;17.33;7.77;;;15.10;75.70;;;;;;5030374;28;20462;-66
2022/03/31 05:34:26;;;;;;;23.50;7.73;;;15.10;76.20;;;;;;5030520;28;20475;-67
2022/03/31 05:36:54;;;;;;;20.07;10.23;;;15.30;76.20;;;;;;5029881;28;20482;-67
2022/03/31 05:39:21;;;;;;;26.10;9.00;;;15.20;75.80;;;;;;5030094;28;20509;-67
2022/03/31 05:41:49;;;;;;;22.07;7.83;;;15.00;77.00;;;;;;5030474;28;20461;-68
2022/03/31 05:44:16;;;;;;;17.90;9.50;;;14.90;78.00;;;;;;5030168;28;20558;-67
2022/03/31 05:46:44;;;;;;;22.47;7.67;;;15.10;77.40;;;;;;5030447;28;20443;-69
2022/03/31 05:49:11;;;;;;;20.57;9.20;;;15.00;78.10;;;;;;5029816;28;20499;-70
2022/03/31 05:51:38;;;;;;;23.97;8.70;;;15.10;79.50;;;;;;5029953;28;20550;-70
2022/03/31 05:54:05;;;;;;;24.63;8.43;;;15.20;80.40;;;;;;5029906;28;20475;-71
2022/03/31 05:56:34;;;;;;;20.37;9.60;;;15.40;80.70;;;;;;5029898;28;20462;-68
2022/03/31 05:59:02;;;;;;;19.57;9.47;;;15.40;81.00;;;;;;5030062;28;20455;-71
2022/03/31 06:01:30;;;;;;;24.43;7.70;;;15.30;83.80;;;;;;5029917;28;20455;-72
2022/03/31 06:03:57;;;;;;;19.90;8.00;;;15.30;85.70;;;;;;5029893;28;20478;-72
2022/03/31 06:06:24;;;;;;;27.03;6.93;;;15.40;87.10;;;;;;5030052;28;20458;-70
2022/03/31 06:08:51;;;;;;;24.23;6.27;;;15.50;89.50;;;;;;5029682;28;20542;-74
2022/03/31 06:11:19;;;;;;;35.23;7.73;;;15.50;91.50;;;;;;5030065;28;20791;-72
2022/03/31 06:13:46;;;;;;;25.87;14.17;;;15.70;91.90;;;;;;5028401;28;20500;-73
2022/03/31 06:16:14;;;;;;;32.67;9.47;;;15.70;92.40;;;;;;5029681;28;20455;-73
2022/03/31 06:18:42;;;;;;;21.27;8.27;;;15.70;93.00;;;;;;5029599;28;20494;-74
2022/03/31 06:21:10;;;;;;;25.73;6.97;;;15.70;93.60;;;;;;5029278;28;20549;-68
2022/03/31 06:23:37;;;;;;;19.10;6.80;;;15.80;94.50;;;;;;5029621;28;20506;-72
2022/03/31 06:26:04;;;;;;;23.90;6.87;;;15.80;94.80;;;;;;5029881;28;20454;-72
2022/03/31 06:28:32;;;;;;;23.63;7.90;;;15.80;95.70;;;;;;5029796;28;20928;-73
2022/03/31 06:31:00;;;;;;;22.80;6.63;;;15.70;96.60;;;;;;5029683;28;20456;-74
2022/03/31 06:33:28;;;;;;;22.83;6.63;;;15.80;97.10;;;;;;5029275;28;20501;-73
2022/03/31 06:35:55;;;;;;;26.63;8.03;;;15.90;96.80;;;;;;5029297;28;20495;-73
2022/03/31 06:38:23;;;;;;;21.00;7.10;;;16.00;96.10;;;;;;5029135;28;20540;-72
2022/03/31 06:43:31;;;;;;;18.53;7.23;;;16.30;95.50;;;;;;5028481;28;20454;-67
2022/03/31 06:45:58;;;;;;;17.20;7.20;;;16.30;95.30;;;;;;5029199;28;20806;-66
2022/03/31 06:48:26;;;;;;;21.57;7.73;;;16.40;95.30;;;;;;5028903;28;20602;-74
2022/03/31 06:50:54;;;;;;;21.03;7.93;;;16.40;95.10;;;;;;5029160;28;20458;-69
2022/03/31 06:53:22;;;;;;;24.37;8.43;;;16.60;95.30;;;;;;5028858;28;20463;-78
2022/03/31 06:55:49;;;;;;;31.03;9.60;;;16.70;94.60;;;;;;5029268;28;20459;-71
2022/03/31 06:58:16;;;;;;;30.77;8.00;;;16.70;94.20;;;;;;5029008;28;20486;-67
2022/03/31 07:00:45;;;;;;;22.40;8.50;;;16.90;93.70;;;;;;5028565;28;20459;-72
2022/03/31 07:03:12;;;;;;;18.57;8.27;;;16.90;93.30;;;;;;5028668;28;20893;-73
2022/03/31 07:05:42;;;;;;;23.83;8.27;;;17.00;93.40;;;;;;5028957;28;20455;-73
2022/03/31 07:08:10;;;;;;;26.70;9.70;;;16.90;92.80;;;;;;5028953;28;20482;-74
2022/03/31 07:10:44;;;;;;;26.70;8.23;;;16.60;93.50;;;;;;5029055;28;20454;-76
2022/03/31 07:13:11;;;;;;;28.60;8.40;;;16.60;94.00;;;;;;5028905;28;20608;-77
2022/03/31 07:15:38;;;;;;;24.87;7.07;;;16.60;93.70;;;;;;5028579;28;20465;-69
2022/03/31 07:18:06;;;;;;;16.70;8.83;;;16.60;93.70;;;;;;5028813;28;20490;-78
2022/03/31 07:20:34;;;;;;;25.30;10.70;;;16.70;94.00;;;;;;5028716;28;20809;-68
2022/03/31 07:23:02;;;;;;;19.60;8.47;;;16.90;94.00;;;;;;5028588;28;20585;-71
2022/03/31 07:25:31;;;;;;;19.53;9.00;;;16.80;94.10;;;;;;5028865;28;20451;-72
2022/03/31 07:27:58;;;;;;;19.60;8.43;;;16.90;94.00;;;;;;5028514;28;20451;-68
2022/03/31 07:30:26;;;;;;;25.70;8.63;;;17.10;93.70;;;;;;5028529;28;20457;-70
2022/03/31 07:32:55;;;;;;;22.73;7.90;;;17.30;93.00;;;;;;5028404;28;20483;-70
2022/03/31 07:35:27;;;;;;;18.00;7.43;;;17.40;92.50;;;;;;5028663;28;20513;-72
2022/03/31 07:37:55;;;;;;;26.30;7.80;;;17.60;92.00;;;;;;5028388;28;20501;-72
2022/03/31 07:40:24;;;;;;;52.07;33.70;;;17.50;91.40;;;;;;5028439;28;20533;-71
2022/03/31 07:42:59;;;;;;;19.17;7.97;;;17.70;91.30;;;;;;5028218;28;20484;-71
2022/03/31 07:45:26;;;;;;;25.60;9.67;;;17.50;90.70;;;;;;5028249;28;20454;-70
2022/03/31 07:47:57;;;;;;;19.90;7.73;;;17.40;91.00;;;;;;5028457;28;20491;-69
2022/03/31 07:50:24;;;;;;;26.53;8.70;;;17.50;91.20;;;;;;5028383;28;20455;-71
2022/03/31 07:52:51;;;;;;;24.53;9.17;;;17.60;91.10;;;;;;5030176;28;20474;-70
2022/03/31 07:55:19;;;;;;;23.40;8.73;;;17.80;91.10;;;;;;5032259;28;20454;-73
2022/03/31 07:57:49;;;;;;;24.03;8.37;;;17.80;90.90;;;;;;5032044;28;20997;-71
2022/03/31 08:00:20;;;;;;;26.23;8.60;;;17.90;90.70;;;;;;5032074;28;20461;-73
2022/03/31 08:02:49;;;;;;;22.97;12.30;;;18.00;90.80;;;;;;5032164;28;20470;-72
2022/03/31 08:05:19;;;;;;;23.33;9.33;;;18.10;90.30;;;;;;5032239;28;20455;-70
2022/03/31 08:07:46;;;;;;;22.97;7.70;;;18.20;90.20;;;;;;5031949;28;20447;-76
2022/03/31 08:10:14;;;;;;;29.87;11.70;;;18.40;90.00;;;;;;5032098;28;20465;-73
2022/03/31 08:12:42;;;;;;;30.80;12.17;;;18.50;89.90;;;;;;5032417;28;20749;-67
2022/03/31 08:15:12;;;;;;;22.07;7.87;;;18.50;88.70;;;;;;5032020;28;20466;-66
2022/03/31 08:17:41;;;;;;;31.37;8.80;;;18.60;88.10;;;;;;5034155;28;20953;-67
2022/03/31 08:20:15;;;;;;;22.10;6.43;;;18.60;87.60;;;;;;5051767;28;20984;-68
2022/03/31 08:22:45;;;;;;;28.83;6.67;;;18.60;86.80;;;;;;5035188;28;20879;-67
2022/03/31 08:25:15;;;;;;;20.90;7.60;;;18.40;86.00;;;;;;5032210;28;20454;-67
2022/03/31 08:27:45;;;;;;;25.50;6.97;;;18.30;86.10;;;;;;5031774;28;20458;-68
2022/03/31 08:30:18;;;;;;;23.03;6.00;;;18.30;85.60;;;;;;5031238;28;20465;-67
2022/03/31 08:32:47;;;;;;;27.13;6.30;;;18.50;86.00;;;;;;5031506;28;20596;-67
2022/03/31 08:35:17;;;;;;;25.33;7.20;;;18.50;87.00;;;;;;5031788;28;20482;-67
2022/03/31 08:37:48;;;;;;;18.37;5.77;;;18.70;86.80;;;;;;5031271;28;21009;-67
2022/03/31 08:40:15;;;;;;;27.37;7.97;;;18.70;84.40;;;;;;5031248;28;20487;-68
2022/03/31 08:42:43;;;;;;;14.40;5.80;;;18.70;84.60;;;;;;5030860;28;20470;-66
2022/03/31 08:45:15;;;;;;;28.70;7.33;;;18.80;84.50;;;;;;5030776;28;20512;-68
2022/03/31 08:47:46;;;;;;;27.53;6.93;;;19.00;83.90;;;;;;5030915;28;20469;-66
2022/03/31 08:50:14;;;;;;;21.20;6.00;;;19.00;83.80;;;;;;5031353;28;20807;-67
2022/03/31 08:52:42;;;;;;;23.13;7.00;;;19.20;83.40;;;;;;5030665;28;20474;-68
2022/03/31 08:55:13;;;;;;;27.77;6.50;;;19.00;83.20;;;;;;5030876;28;20972;-67
2022/03/31 08:57:45;;;;;;;23.83;6.37;;;18.90;83.30;;;;;;5030948;28;20493;-66
2022/03/31 09:00:14;;;;;;;19.83;6.53;;;19.00;83.20;;;;;;5029608;28;20974;-67
2022/03/31 09:02:52;;;;;;;20.77;5.80;;;19.10;83.40;;;;;;5030855;28;20475;-66
2022/03/31 09:05:20;;;;;;;19.03;6.73;;;19.10;82.80;;;;;;5030624;28;20466;-66
2022/03/31 09:07:55;;;;;;;20.90;6.57;;;19.10;83.10;;;;;;5030781;28;20473;-67
2022/03/31 09:10:31;;;;;;;21.93;5.10;;;19.20;82.60;;;;;;5030554;28;20633;-66
2022/03/31 09:13:00;;;;;;;21.70;6.17;;;19.30;81.80;;;;;;5030590;28;20510;-66
2022/03/31 09:15:30;;;;;;;27.40;6.90;;;19.40;81.90;;;;;;5030907;28;20455;-67
2022/03/31 09:17:58;;;;;;;26.90;10.37;;;19.30;81.10;;;;;;5030951;28;20490;-66
2022/03/31 09:20:36;;;;;;;23.27;7.13;;;19.30;81.30;;;;;;5030925;28;20465;-67
2022/03/31 09:23:04;;;;;;;28.57;5.67;;;19.40;81.30;;;;;;5030142;28;20975;-66
2022/03/31 09:25:32;;;;;;;24.40;6.17;;;19.40;81.40;;;;;;5030796;28;20455;-65
2022/03/31 09:28:01;;;;;;;19.20;5.93;;;19.60;81.20;;;;;;5030750;28;20455;-67
2022/03/31 09:30:31;;;;;;;26.27;7.20;;;19.70;81.10;;;;;;5030218;28;20460;-68
2022/03/31 09:33:02;;;;;;;24.97;6.40;;;19.80;80.90;;;;;;5030921;28;20506;-68
2022/03/31 09:35:31;;;;;;;18.27;5.13;;;20.00;80.60;;;;;;5030628;28;20977;-68
2022/03/31 09:37:59;;;;;;;19.00;5.90;;;20.10;79.80;;;;;;5030338;28;20493;-67
2022/03/31 09:40:37;;;;;;;21.27;6.00;;;20.20;79.00;;;;;;5030537;28;20525;-65
2022/03/31 09:43:05;;;;;;;21.10;5.97;;;20.30;79.00;;;;;;5030755;28;20543;-68
2022/03/31 09:45:39;;;;;;;27.67;7.70;;;20.50;79.00;;;;;;5030423;28;20478;-67
2022/03/31 09:48:17;;;;;;;20.83;7.13;;;20.70;78.60;;;;;;5030491;28;20489;-67
2022/03/31 09:50:46;;;;;;;19.97;4.67;;;20.80;76.50;;;;;;5030594;28;20822;-68
2022/03/31 09:53:14;;;;;;;23.67;5.47;;;20.80;76.60;;;;;;5029960;28;20471;-67
2022/03/31 09:55:43;;;;;;;21.50;7.00;;;21.00;76.50;;;;;;5030704;28;20457;-67
2022/03/31 09:58:18;;;;;;;19.60;6.27;;;21.10;75.00;;;;;;5030093;28;20868;-68
2022/03/31 10:00:46;;;;;;;24.80;5.73;;;21.00;75.00;;;;;;5029997;28;20484;-66
2022/03/31 10:03:17;;;;;;;21.40;5.80;;;20.90;74.50;;;;;;5030003;28;20462;-67
2022/03/31 10:05:46;;;;;;;20.60;6.73;;;21.00;75.10;;;;;;5029671;28;20455;-65
2022/03/31 10:08:14;;;;;;;20.30;6.23;;;21.20;75.10;;;;;;5030021;28;20466;-67
2022/03/31 10:10:43;;;;;;;29.07;7.03;;;21.30;74.30;;;;;;5029736;28;20478;-67
2022/03/31 10:13:16;;;;;;;17.90;6.23;;;21.40;74.00;;;;;;5030175;28;20549;-67
2022/03/31 10:15:46;;;;;;;21.10;6.00;;;21.50;73.50;;;;;;5029710;28;20460;-67
2022/03/31 10:18:15;;;;;;;18.40;5.80;;;21.60;73.40;;;;;;5029994;28;20621;-67
2022/03/31 10:20:56;;;;;;;21.17;6.20;;;21.40;71.90;;;;;;5029367;28;20479;-67
2022/03/31 10:26:26;;;;;;;22.30;5.90;;;20.80;73.00;;;;;;5029261;28;20564;-68
2022/03/31 10:28:57;;;;;;;18.67;6.47;;;20.70;74.00;;;;;;5029413;28;20474;-66
2022/03/31 10:31:35;;;;;;;26.17;7.80;;;20.90;74.70;;;;;;5029066;28;21019;-67
2022/03/31 10:34:03;;;;;;;17.33;5.93;;;21.10;73.70;;;;;;5029405;28;20455;-66
2022/03/31 10:36:39;;;;;;;25.00;5.50;;;21.10;74.10;;;;;;5029210;28;20451;-67
2022/03/31 10:39:16;;;;;;;21.87;5.00;;;20.90;74.60;;;;;;5029416;28;20497;-67
2022/03/31 10:41:44;;;;;;;13.87;4.50;;;21.10;74.40;;;;;;5029238;28;20477;-67
2022/03/31 10:44:19;;;;;;;17.10;4.97;;;21.20;74.00;;;;;;5029447;28;21089;-68
2022/03/31 10:47:02;;;;;;;20.40;5.33;;;21.30;73.80;;;;;;5029267;28;20545;-66
2022/03/31 10:49:29;;;;;;;17.87;6.17;;;21.40;73.30;;;;;;5028254;28;21331;-68
2022/03/31 10:51:58;;;;;;;21.07;5.93;;;21.50;72.60;;;;;;5029197;28;20486;-67
2022/03/31 10:54:30;;;;;;;22.50;6.10;;;21.70;72.20;;;;;;5028795;28;20971;-67
2022/03/31 10:57:08;;;;;;;25.27;6.60;;;21.70;71.70;;;;;;5029616;28;20463;-68
2022/03/31 10:59:38;;;;;;;17.70;5.43;;;21.80;72.10;;;;;;5029178;28;20497;-66
2022/03/31 11:02:11;;;;;;;17.13;5.53;;;21.90;71.50;;;;;;5029001;28;20494;-67
2022/03/31 11:04:48;;;;;;;29.83;6.90;;;22.00;71.90;;;;;;5028738;28;20467;-67
2022/03/31 11:07:19;;;;;;;16.67;5.10;;;22.20;70.00;;;;;;5028632;28;20484;-68
2022/03/31 11:09:46;;;;;;;21.60;5.97;;;22.20;69.70;;;;;;5029184;28;20886;-68
2022/03/31 11:12:28;;;;;;;21.50;5.90;;;22.20;69.40;;;;;;5028936;28;20471;-66
2022/03/31 11:14:57;;;;;;;18.60;5.37;;;22.20;70.50;;;;;;5028808;28;20795;-68
2022/03/31 11:17:25;;;;;;;22.97;6.90;;;22.30;69.00;;;;;;5029003;28;20545;-68
2022/03/31 11:19:54;;;;;;;19.90;5.20;;;22.40;68.50;;;;;;5028491;28;21030;-66
2022/03/31 11:22:26;;;;;;;20.30;7.07;;;22.40;69.10;;;;;;5041606;28;20481;-68
2022/03/31 11:24:54;;;;;;;21.63;6.87;;;22.50;68.50;;;;;;5048990;28;20504;-68
2022/03/31 11:27:36;;;;;;;26.67;8.13;;;22.40;68.20;;;;;;5048139;28;20472;-67
2022/03/31 11:30:05;;;;;;;20.77;6.40;;;22.10;68.50;;;;;;5047899;28;21055;-67
2022/03/31 11:32:33;;;;;;;16.63;6.27;;;21.60;69.30;;;;;;5048054;28;20688;-68
2022/03/31 11:35:01;;;;;;;14.97;5.07;;;21.60;69.90;;;;;;5048615;28;20457;-67
2022/03/31 11:37:30;;;;;;;17.20;5.30;;;21.60;69.80;;;;;;5048465;28;20462;-68
2022/03/31 11:39:57;;;;;;;30.33;6.57;;;21.30;70.30;;;;;;5048330;28;20494;-66
2022/03/31 11:42:24;;;;;;;14.07;4.53;;;21.20;71.90;;;;;;5048442;28;20454;-65
2022/03/31 11:44:52;;;;;;;23.57;5.83;;;21.20;72.80;;;;;;5048734;28;20454;-66
2022/03/31 11:47:20;;;;;;;16.00;5.10;;;21.10;73.60;;;;;;5048289;28;20473;-68
2022/03/31 11:49:59;;;;;;;31.47;6.00;;;20.60;74.40;;;;;;5048228;28;20486;-68
2022/03/31 11:52:32;;;;;;;18.63;5.13;;;20.60;74.80;;;;;;5048505;28;20442;-67
2022/03/31 11:55:02;;;;;;;23.40;5.10;;;20.70;75.60;;;;;;5048197;28;20545;-67
2022/03/31 11:57:30;;;;;;;20.20;4.27;;;21.00;75.60;;;;;;5047826;28;20460;-67
2022/03/31 12:00:07;;;;;;;14.07;4.03;;;21.30;75.30;;;;;;5048105;28;20588;-66
2022/03/31 12:02:34;;;;;;;16.57;3.67;;;21.20;75.80;;;;;;5048278;28;20473;-68
2022/03/31 12:05:04;;;;;;;12.13;3.40;;;20.90;76.10;;;;;;5048364;28;20860;-77
2022/03/31 12:07:33;;;;;;;15.03;2.97;;;20.90;75.50;;;;;;5048128;28;20465;-73
2022/03/31 12:10:03;;;;;;;15.13;3.20;;;21.10;76.20;;;;;;5048250;28;20446;-76
2022/03/31 12:12:30;;;;;;;15.97;5.00;;;21.20;75.60;;;;;;5048119;28;20462;-74
2022/03/31 12:15:00;;;;;;;11.93;4.30;;;21.30;75.70;;;;;;5048338;28;20496;-68
2022/03/31 12:17:28;;;;;;;16.43;3.97;;;21.40;75.30;;;;;;5047888;28;20457;-67
2022/03/31 12:19:55;;;;;;;19.40;3.87;;;21.50;75.00;;;;;;5047954;28;20839;-68
2022/03/31 12:22:33;;;;;;;15.83;4.13;;;21.70;74.40;;;;;;5047639;28;21050;-67
2022/03/31 12:25:00;;;;;;;12.03;4.33;;;21.80;73.90;;;;;;5048370;28;20580;-67
2022/03/31 12:27:27;;;;;;;26.70;5.57;;;21.90;73.60;;;;;;5048105;28;20460;-68
2022/03/31 12:30:03;;;;;;;16.00;4.70;;;22.20;73.30;;;;;;5048163;28;20482;-68
2022/03/31 12:32:30;;;;;;;16.50;5.33;;;22.40;73.40;;;;;;5047658;28;20453;-67
2022/03/31 12:35:01;;;;;;;14.07;4.57;;;22.50;70.70;;;;;;5047944;28;20810;-67
2022/03/31 12:37:30;;;;;;;11.23;4.63;;;22.50;70.50;;;;;;5048153;28;20458;-69
2022/03/31 12:39:59;;;;;;;19.03;3.90;;;22.40;70.10;;;;;;5051628;28;20511;-68
2022/03/31 12:42:27;;;;;;;15.83;4.30;;;22.30;70.20;;;;;;5051472;28;20523;-67
2022/03/31 12:44:54;;;;;;;18.73;4.60;;;22.10;69.80;;;;;;5051586;28;20465;-67
2022/03/31 12:47:24;;;;;;;10.97;4.13;;;22.10;70.40;;;;;;5051311;28;20454;-68
2022/03/31 12:49:51;;;;;;;16.93;4.00;;;22.10;71.00;;;;;;5051008;28;20577;-68
2022/03/31 12:52:20;;;;;;;18.13;4.57;;;22.00;70.80;;;;;;5051014;28;20515;-67